Terminal Aerodrome Forecast
Issued by NWS

Home | Current Version | Previous Version | Graphics & Text | Print | Product List | Glossary On
Versions: 1 2 3 4 5 6 7 8 9 10 11 12 13 14 15 16 17 18 19 20 21 22 23 24 25 26
000
FTUS43 KLOT 152106 AAA
TAFDPA
TAF AMD
KDPA 152106Z 1521/1618 26012KT 2SM -SN SCT015 BKN025
      TEMPO 1521/1523 1SM -SN BR
     FM152300 27010G20KT 5SM -SN BKN012 OVC020
     FM160000 27013G22KT P6SM SCT015 BKN025
     FM160600 29012G17KT 6SM -SN BKN025 PROB30 1606/1610 2SM -SHSN
     FM161400 32012KT P6SM BKN025=

USA.gov is the U.S. government's official web portal to all federal, state and local government web resources and services.